sensor_id;sensor_type;location;lat;lon;timestamp;P1;durP1;ratioP1;P2;durP2;ratioP2
10299;SDS011;5195;48.562;9.192;2023-02-28T00:01:40;3.27;;;2.97;;
10299;SDS011;5195;48.562;9.192;2023-02-28T00:04:16;3.27;;;2.97;;
10299;SDS011;5195;48.562;9.192;2023-02-28T00:06:52;3.17;;;2.90;;
10299;SDS011;5195;48.562;9.192;2023-02-28T00:09:30;3.10;;;2.80;;
10299;SDS011;5195;48.562;9.192;2023-02-28T00:12:05;3.50;;;3.30;;
10299;SDS011;5195;48.562;9.192;2023-02-28T00:14:41;3.47;;;3.27;;
10299;SDS011;5195;48.562;9.192;2023-02-28T00:17:16;3.60;;;3.40;;
10299;SDS011;5195;48.562;9.192;2023-02-28T00:19:55;3.50;;;3.30;;
10299;SDS011;5195;48.562;9.192;2023-02-28T00:22:32;3.40;;;3.20;;
10299;SDS011;5195;48.562;9.192;2023-02-28T00:25:09;3.50;;;3.22;;
10299;SDS011;5195;48.562;9.192;2023-02-28T00:27:46;3.50;;;3.30;;
10299;SDS011;5195;48.562;9.192;2023-02-28T00:30:22;4.40;;;3.40;;
10299;SDS011;5195;48.562;9.192;2023-02-28T00:32:57;3.40;;;3.20;;
10299;SDS011;5195;48.562;9.192;2023-02-28T00:35:32;3.00;;;2.87;;
10299;SDS011;5195;48.562;9.192;2023-02-28T00:38:08;2.90;;;2.70;;
10299;SDS011;5195;48.562;9.192;2023-02-28T00:40:43;3.30;;;3.10;;
10299;SDS011;5195;48.562;9.192;2023-02-28T00:43:19;3.57;;;3.37;;
10299;SDS011;5195;48.562;9.192;2023-02-28T00:45:54;3.70;;;3.40;;
10299;SDS011;5195;48.562;9.192;2023-02-28T00:48:30;3.60;;;3.30;;
10299;SDS011;5195;48.562;9.192;2023-02-28T00:51:05;3.97;;;3.10;;
10299;SDS011;5195;48.562;9.192;2023-02-28T00:53:41;3.07;;;2.87;;
10299;SDS011;5195;48.562;9.192;2023-02-28T00:56:17;3.20;;;2.90;;
10299;SDS011;5195;48.562;9.192;2023-02-28T00:58:52;3.90;;;3.60;;
10299;SDS011;5195;48.562;9.192;2023-02-28T01:01:28;3.43;;;3.20;;
10299;SDS011;5195;48.562;9.192;2023-02-28T01:04:04;3.57;;;3.27;;
10299;SDS011;5195;48.562;9.192;2023-02-28T01:06:40;2.90;;;2.70;;
10299;SDS011;5195;48.562;9.192;2023-02-28T01:09:16;3.67;;;3.37;;
10299;SDS011;5195;48.562;9.192;2023-02-28T01:11:51;4.35;;;4.00;;
10299;SDS011;5195;48.562;9.192;2023-02-28T01:14:27;3.47;;;3.27;;
10299;SDS011;5195;48.562;9.192;2023-02-28T01:17:03;3.50;;;3.30;;
10299;SDS011;5195;48.562;9.192;2023-02-28T01:19:38;3.07;;;2.87;;
10299;SDS011;5195;48.562;9.192;2023-02-28T01:22:14;3.83;;;3.43;;
10299;SDS011;5195;48.562;9.192;2023-02-28T01:24:49;3.60;;;3.00;;
10299;SDS011;5195;48.562;9.192;2023-02-28T01:27:25;3.60;;;3.30;;
10299;SDS011;5195;48.562;9.192;2023-02-28T01:30:01;3.67;;;3.37;;
10299;SDS011;5195;48.562;9.192;2023-02-28T01:32:36;3.10;;;2.90;;
10299;SDS011;5195;48.562;9.192;2023-02-28T01:35:12;3.83;;;3.53;;
10299;SDS011;5195;48.562;9.192;2023-02-28T01:37:48;3.30;;;3.00;;
10299;SDS011;5195;48.562;9.192;2023-02-28T01:40:24;2.70;;;2.50;;
10299;SDS011;5195;48.562;9.192;2023-02-28T01:43:00;4.00;;;3.70;;
10299;SDS011;5195;48.562;9.192;2023-02-28T01:45:35;3.20;;;3.00;;
10299;SDS011;5195;48.562;9.192;2023-02-28T01:48:11;3.10;;;2.80;;
10299;SDS011;5195;48.562;9.192;2023-02-28T01:50:46;3.23;;;3.03;;
10299;SDS011;5195;48.562;9.192;2023-02-28T01:53:24;3.73;;;3.47;;
10299;SDS011;5195;48.562;9.192;2023-02-28T01:55:58;3.63;;;3.33;;
10299;SDS011;5195;48.562;9.192;2023-02-28T01:58:35;3.77;;;3.43;;
10299;SDS011;5195;48.562;9.192;2023-02-28T02:01:11;3.80;;;3.60;;
10299;SDS011;5195;48.562;9.192;2023-02-28T02:03:48;3.57;;;3.30;;
10299;SDS011;5195;48.562;9.192;2023-02-28T02:06:38;3.43;;;3.10;;
10299;SDS011;5195;48.562;9.192;2023-02-28T02:09:12;2.83;;;2.63;;
10299;SDS011;5195;48.562;9.192;2023-02-28T02:11:47;3.90;;;3.60;;
10299;SDS011;5195;48.562;9.192;2023-02-28T02:25:45;3.70;;;3.40;;
10299;SDS011;5195;48.562;9.192;2023-02-28T02:31:52;3.33;;;3.03;;
10299;SDS011;5195;48.562;9.192;2023-02-28T02:37:47;4.00;;;3.70;;
10299;SDS011;5195;48.562;9.192;2023-02-28T02:40:27;3.40;;;3.20;;
10299;SDS011;5195;48.562;9.192;2023-02-28T02:43:02;3.50;;;3.23;;
10299;SDS011;5195;48.562;9.192;2023-02-28T02:45:38;4.17;;;3.87;;
10299;SDS011;5195;48.562;9.192;2023-02-28T02:48:16;4.43;;;4.10;;
10299;SDS011;5195;48.562;9.192;2023-02-28T02:50:57;4.50;;;4.07;;
10299;SDS011;5195;48.562;9.192;2023-02-28T02:53:33;3.50;;;3.30;;
10299;SDS011;5195;48.562;9.192;2023-02-28T02:56:07;3.50;;;3.30;;
10299;SDS011;5195;48.562;9.192;2023-02-28T02:58:43;3.70;;;3.50;;
10299;SDS011;5195;48.562;9.192;2023-02-28T03:01:19;3.43;;;3.23;;
10299;SDS011;5195;48.562;9.192;2023-02-28T03:03:56;4.70;;;4.30;;
10299;SDS011;5195;48.562;9.192;2023-02-28T03:06:31;4.30;;;4.00;;
10299;SDS011;5195;48.562;9.192;2023-02-28T03:09:06;3.97;;;3.63;;
10299;SDS011;5195;48.562;9.192;2023-02-28T03:11:42;4.37;;;4.13;;
10299;SDS011;5195;48.562;9.192;2023-02-28T03:22:39;4.47;;;4.17;;
10299;SDS011;5195;48.562;9.192;2023-02-28T03:30:59;3.67;;;3.47;;
10299;SDS011;5195;48.562;9.192;2023-02-28T03:36:17;4.57;;;4.13;;
10299;SDS011;5195;48.562;9.192;2023-02-28T03:38:53;4.87;;;4.47;;
10299;SDS011;5195;48.562;9.192;2023-02-28T03:41:45;3.53;;;3.33;;
10299;SDS011;5195;48.562;9.192;2023-02-28T03:44:24;3.83;;;3.53;;
10299;SDS011;5195;48.562;9.192;2023-02-28T03:46:59;4.80;;;4.40;;
10299;SDS011;5195;48.562;9.192;2023-02-28T03:49:35;4.57;;;4.27;;
10299;SDS011;5195;48.562;9.192;2023-02-28T03:52:10;5.20;;;4.80;;
10299;SDS011;5195;48.562;9.192;2023-02-28T03:54:48;5.07;;;4.67;;
10299;SDS011;5195;48.562;9.192;2023-02-28T03:57:37;4.10;;;3.80;;
10299;SDS011;5195;48.562;9.192;2023-02-28T04:00:16;4.70;;;4.40;;
10299;SDS011;5195;48.562;9.192;2023-02-28T04:02:50;3.70;;;3.50;;
10299;SDS011;5195;48.562;9.192;2023-02-28T04:05:25;3.60;;;3.40;;
10299;SDS011;5195;48.562;9.192;2023-02-28T04:08:05;5.33;;;3.90;;
10299;SDS011;5195;48.562;9.192;2023-02-28T04:10:40;4.93;;;4.63;;
10299;SDS011;5195;48.562;9.192;2023-02-28T04:13:16;5.20;;;4.17;;
10299;SDS011;5195;48.562;9.192;2023-02-28T04:15:51;4.50;;;4.20;;
10299;SDS011;5195;48.562;9.192;2023-02-28T04:18:27;4.03;;;3.73;;
10299;SDS011;5195;48.562;9.192;2023-02-28T04:21:04;5.17;;;4.80;;
10299;SDS011;5195;48.562;9.192;2023-02-28T04:23:39;5.40;;;5.00;;
10299;SDS011;5195;48.562;9.192;2023-02-28T04:26:16;4.67;;;4.10;;
10299;SDS011;5195;48.562;9.192;2023-02-28T04:28:52;4.03;;;3.70;;
10299;SDS011;5195;48.562;9.192;2023-02-28T04:31:27;4.07;;;3.77;;
10299;SDS011;5195;48.562;9.192;2023-02-28T04:34:03;4.30;;;4.00;;
10299;SDS011;5195;48.562;9.192;2023-02-28T04:36:39;3.73;;;3.40;;
10299;SDS011;5195;48.562;9.192;2023-02-28T04:39:15;5.20;;;4.90;;
10299;SDS011;5195;48.562;9.192;2023-02-28T04:41:50;4.50;;;4.13;;
10299;SDS011;5195;48.562;9.192;2023-02-28T04:44:26;5.33;;;4.97;;
10299;SDS011;5195;48.562;9.192;2023-02-28T04:47:01;4.60;;;4.30;;
10299;SDS011;5195;48.562;9.192;2023-02-28T04:49:37;4.83;;;4.43;;
10299;SDS011;5195;48.562;9.192;2023-02-28T04:52:12;5.60;;;5.10;;
10299;SDS011;5195;48.562;9.192;2023-02-28T04:54:48;5.70;;;5.20;;
10299;SDS011;5195;48.562;9.192;2023-02-28T04:57:24;4.67;;;4.37;;
10299;SDS011;5195;48.562;9.192;2023-02-28T04:59:59;5.87;;;5.37;;
10299;SDS011;5195;48.562;9.192;2023-02-28T05:02:35;5.87;;;5.40;;
10299;SDS011;5195;48.562;9.192;2023-02-28T05:05:12;5.13;;;4.63;;
10299;SDS011;5195;48.562;9.192;2023-02-28T05:07:47;5.67;;;5.27;;
10299;SDS011;5195;48.562;9.192;2023-02-28T05:10:23;5.90;;;5.50;;
10299;SDS011;5195;48.562;9.192;2023-02-28T05:12:58;6.80;;;6.20;;
10299;SDS011;5195;48.562;9.192;2023-02-28T05:15:34;6.43;;;5.47;;
10299;SDS011;5195;48.562;9.192;2023-02-28T05:18:11;6.33;;;5.83;;
10299;SDS011;5195;48.562;9.192;2023-02-28T05:20:47;6.33;;;5.90;;
10299;SDS011;5195;48.562;9.192;2023-02-28T05:23:23;6.37;;;5.87;;
10299;SDS011;5195;48.562;9.192;2023-02-28T05:25:58;6.00;;;5.60;;
10299;SDS011;5195;48.562;9.192;2023-02-28T05:28:34;6.20;;;5.73;;
10299;SDS011;5195;48.562;9.192;2023-02-28T05:31:14;5.57;;;5.17;;
10299;SDS011;5195;48.562;9.192;2023-02-28T05:33:51;6.50;;;6.07;;
10299;SDS011;5195;48.562;9.192;2023-02-28T05:36:28;7.10;;;6.50;;
10299;SDS011;5195;48.562;9.192;2023-02-28T05:39:05;6.53;;;6.10;;
10299;SDS011;5195;48.562;9.192;2023-02-28T05:41:41;6.77;;;6.27;;
10299;SDS011;5195;48.562;9.192;2023-02-28T05:44:16;5.83;;;5.33;;
10299;SDS011;5195;48.562;9.192;2023-02-28T05:46:53;6.70;;;6.20;;
10299;SDS011;5195;48.562;9.192;2023-02-28T05:49:29;6.90;;;6.50;;
10299;SDS011;5195;48.562;9.192;2023-02-28T05:52:04;5.53;;;5.13;;
10299;SDS011;5195;48.562;9.192;2023-02-28T05:54:41;5.47;;;5.07;;
10299;SDS011;5195;48.562;9.192;2023-02-28T05:57:16;7.20;;;6.63;;
10299;SDS011;5195;48.562;9.192;2023-02-28T05:59:53;5.40;;;5.00;;
10299;SDS011;5195;48.562;9.192;2023-02-28T06:02:29;5.93;;;5.43;;
10299;SDS011;5195;48.562;9.192;2023-02-28T06:05:04;6.10;;;5.50;;
10299;SDS011;5195;48.562;9.192;2023-02-28T06:07:40;7.27;;;6.70;;
10299;SDS011;5195;48.562;9.192;2023-02-28T06:10:16;6.03;;;5.57;;
10299;SDS011;5195;48.562;9.192;2023-02-28T06:12:51;5.80;;;5.40;;
10299;SDS011;5195;48.562;9.192;2023-02-28T06:15:28;6.27;;;5.10;;
10299;SDS011;5195;48.562;9.192;2023-02-28T06:18:03;6.63;;;5.53;;
10299;SDS011;5195;48.562;9.192;2023-02-28T06:20:39;5.30;;;5.00;;
10299;SDS011;5195;48.562;9.192;2023-02-28T06:23:14;5.43;;;5.03;;
10299;SDS011;5195;48.562;9.192;2023-02-28T06:25:50;7.40;;;6.90;;
10299;SDS011;5195;48.562;9.192;2023-02-28T06:28:26;6.47;;;5.87;;
10299;SDS011;5195;48.562;9.192;2023-02-28T06:31:09;7.90;;;7.30;;
10299;SDS011;5195;48.562;9.192;2023-02-28T06:33:44;6.37;;;5.87;;
10299;SDS011;5195;48.562;9.192;2023-02-28T06:36:19;5.97;;;5.53;;
10299;SDS011;5195;48.562;9.192;2023-02-28T06:38:55;6.73;;;6.03;;
10299;SDS011;5195;48.562;9.192;2023-02-28T06:41:30;6.17;;;5.67;;
10299;SDS011;5195;48.562;9.192;2023-02-28T06:44:26;7.07;;;5.47;;
10299;SDS011;5195;48.562;9.192;2023-02-28T06:46:52;8.53;;;7.73;;
10299;SDS011;5195;48.562;9.192;2023-02-28T06:49:29;6.70;;;6.20;;
10299;SDS011;5195;48.562;9.192;2023-02-28T06:52:04;6.80;;;6.20;;
10299;SDS011;5195;48.562;9.192;2023-02-28T06:54:41;7.00;;;6.40;;
10299;SDS011;5195;48.562;9.192;2023-02-28T06:57:17;6.33;;;5.80;;
10299;SDS011;5195;48.562;9.192;2023-02-28T06:59:52;6.70;;;6.07;;
10299;SDS011;5195;48.562;9.192;2023-02-28T07:02:29;8.67;;;7.97;;
10299;SDS011;5195;48.562;9.192;2023-02-28T07:05:07;7.70;;;7.00;;
10299;SDS011;5195;48.562;9.192;2023-02-28T07:07:42;7.43;;;6.67;;
10299;SDS011;5195;48.562;9.192;2023-02-28T07:10:18;8.70;;;8.00;;
10299;SDS011;5195;48.562;9.192;2023-02-28T07:12:54;7.93;;;7.23;;
10299;SDS011;5195;48.562;9.192;2023-02-28T07:15:29;10.07;;;9.33;;
10299;SDS011;5195;48.562;9.192;2023-02-28T07:18:05;8.00;;;7.30;;
10299;SDS011;5195;48.562;9.192;2023-02-28T07:20:40;17.43;;;14.70;;
10299;SDS011;5195;48.562;9.192;2023-02-28T07:23:17;14.63;;;13.13;;
10299;SDS011;5195;48.562;9.192;2023-02-28T07:25:52;10.93;;;9.83;;
10299;SDS011;5195;48.562;9.192;2023-02-28T07:28:28;11.97;;;10.97;;
10299;SDS011;5195;48.562;9.192;2023-02-28T07:31:04;8.43;;;7.60;;
10299;SDS011;5195;48.562;9.192;2023-02-28T07:33:40;9.03;;;8.33;;
10299;SDS011;5195;48.562;9.192;2023-02-28T07:36:16;9.52;;;8.82;;
10299;SDS011;5195;48.562;9.192;2023-02-28T07:38:52;8.75;;;8.15;;
10299;SDS011;5195;48.562;9.192;2023-02-28T07:41:28;9.00;;;8.40;;
10299;SDS011;5195;48.562;9.192;2023-02-28T07:44:04;13.37;;;12.13;;
10299;SDS011;5195;48.562;9.192;2023-02-28T07:46:40;7.80;;;7.10;;
10299;SDS011;5195;48.562;9.192;2023-02-28T07:49:15;6.63;;;6.13;;
10299;SDS011;5195;48.562;9.192;2023-02-28T07:51:52;7.97;;;7.20;;
10299;SDS011;5195;48.562;9.192;2023-02-28T07:54:27;7.30;;;6.70;;
10299;SDS011;5195;48.562;9.192;2023-02-28T07:57:03;8.07;;;7.37;;
10299;SDS011;5195;48.562;9.192;2023-02-28T07:59:38;7.43;;;6.73;;
10299;SDS011;5195;48.562;9.192;2023-02-28T08:02:15;9.10;;;8.40;;
10299;SDS011;5195;48.562;9.192;2023-02-28T08:04:50;8.00;;;7.40;;
10299;SDS011;5195;48.562;9.192;2023-02-28T08:07:25;7.77;;;7.03;;
10299;SDS011;5195;48.562;9.192;2023-02-28T08:10:01;9.70;;;8.93;;
10299;SDS011;5195;48.562;9.192;2023-02-28T08:12:37;8.40;;;7.60;;
10299;SDS011;5195;48.562;9.192;2023-02-28T08:15:12;9.57;;;8.87;;
10299;SDS011;5195;48.562;9.192;2023-02-28T08:17:48;9.37;;;8.53;;
10299;SDS011;5195;48.562;9.192;2023-02-28T08:20:24;10.25;;;9.45;;
10299;SDS011;5195;48.562;9.192;2023-02-28T08:23:00;10.33;;;9.57;;
10299;SDS011;5195;48.562;9.192;2023-02-28T08:25:35;10.77;;;9.87;;
10299;SDS011;5195;48.562;9.192;2023-02-28T08:28:11;10.63;;;9.73;;
10299;SDS011;5195;48.562;9.192;2023-02-28T08:30:47;10.73;;;9.83;;
10299;SDS011;5195;48.562;9.192;2023-02-28T08:33:23;9.27;;;8.47;;
10299;SDS011;5195;48.562;9.192;2023-02-28T08:35:58;8.97;;;8.23;;
10299;SDS011;5195;48.562;9.192;2023-02-28T08:38:35;8.80;;;8.10;;
10299;SDS011;5195;48.562;9.192;2023-02-28T08:41:10;10.47;;;9.63;;
10299;SDS011;5195;48.562;9.192;2023-02-28T08:43:45;10.63;;;9.83;;
10299;SDS011;5195;48.562;9.192;2023-02-28T08:46:22;10.50;;;9.70;;
10299;SDS011;5195;48.562;9.192;2023-02-28T08:48:57;10.30;;;9.53;;
10299;SDS011;5195;48.562;9.192;2023-02-28T08:51:33;9.43;;;8.13;;
10299;SDS011;5195;48.562;9.192;2023-02-28T08:54:09;8.17;;;7.57;;
10299;SDS011;5195;48.562;9.192;2023-02-28T08:56:45;8.37;;;7.50;;
10299;SDS011;5195;48.562;9.192;2023-02-28T08:59:20;10.20;;;9.40;;
10299;SDS011;5195;48.562;9.192;2023-02-28T09:01:56;10.60;;;9.90;;
10299;SDS011;5195;48.562;9.192;2023-02-28T09:04:33;9.10;;;8.40;;
10299;SDS011;5195;48.562;9.192;2023-02-28T09:07:07;10.13;;;9.43;;
10299;SDS011;5195;48.562;9.192;2023-02-28T09:09:43;8.50;;;7.80;;
10299;SDS011;5195;48.562;9.192;2023-02-28T09:12:22;26.17;;;15.50;;
10299;SDS011;5195;48.562;9.192;2023-02-28T09:15:01;8.93;;;8.10;;
10299;SDS011;5195;48.562;9.192;2023-02-28T09:17:37;11.30;;;10.40;;
10299;SDS011;5195;48.562;9.192;2023-02-28T09:20:12;9.30;;;8.37;;
10299;SDS011;5195;48.562;9.192;2023-02-28T09:22:48;10.67;;;9.33;;
10299;SDS011;5195;48.562;9.192;2023-02-28T09:25:24;10.63;;;9.82;;
10299;SDS011;5195;48.562;9.192;2023-02-28T09:27:59;8.90;;;8.10;;
10299;SDS011;5195;48.562;9.192;2023-02-28T09:30:36;8.77;;;8.00;;
10299;SDS011;5195;48.562;9.192;2023-02-28T09:33:12;8.70;;;8.00;;
10299;SDS011;5195;48.562;9.192;2023-02-28T09:35:47;8.67;;;7.87;;
10299;SDS011;5195;48.562;9.192;2023-02-28T09:38:23;10.00;;;9.30;;
10299;SDS011;5195;48.562;9.192;2023-02-28T09:41:00;10.77;;;9.93;;
10299;SDS011;5195;48.562;9.192;2023-02-28T09:43:35;10.33;;;9.53;;
10299;SDS011;5195;48.562;9.192;2023-02-28T09:49:01;9.50;;;8.80;;
10299;SDS011;5195;48.562;9.192;2023-02-28T09:52:14;8.53;;;7.93;;
10299;SDS011;5195;48.562;9.192;2023-02-28T09:54:41;9.13;;;8.33;;
10299;SDS011;5195;48.562;9.192;2023-02-28T09:57:35;8.70;;;7.80;;
10299;SDS011;5195;48.562;9.192;2023-02-28T10:06:06;8.47;;;7.87;;
10299;SDS011;5195;48.562;9.192;2023-02-28T10:08:49;9.23;;;8.50;;
10299;SDS011;5195;48.562;9.192;2023-02-28T10:11:20;8.90;;;8.10;;
10299;SDS011;5195;48.562;9.192;2023-02-28T10:14:01;10.48;;;9.73;;
10299;SDS011;5195;48.562;9.192;2023-02-28T10:22:21;11.43;;;10.53;;
10299;SDS011;5195;48.562;9.192;2023-02-28T10:24:55;12.73;;;11.67;;
10299;SDS011;5195;48.562;9.192;2023-02-28T10:27:34;10.63;;;9.63;;
10299;SDS011;5195;48.562;9.192;2023-02-28T10:30:10;10.30;;;9.40;;
10299;SDS011;5195;48.562;9.192;2023-02-28T10:32:49;11.13;;;10.20;;
10299;SDS011;5195;48.562;9.192;2023-02-28T10:35:24;12.40;;;10.57;;
10299;SDS011;5195;48.562;9.192;2023-02-28T10:38:01;13.23;;;12.10;;
10299;SDS011;5195;48.562;9.192;2023-02-28T10:40:36;9.27;;;8.47;;
10299;SDS011;5195;48.562;9.192;2023-02-28T10:46:16;10.40;;;9.50;;
10299;SDS011;5195;48.562;9.192;2023-02-28T10:48:42;8.83;;;8.13;;
10299;SDS011;5195;48.562;9.192;2023-02-28T10:51:18;11.35;;;10.35;;
10299;SDS011;5195;48.562;9.192;2023-02-28T10:53:52;11.20;;;10.40;;
10299;SDS011;5195;48.562;9.192;2023-02-28T10:56:28;13.17;;;12.00;;
10299;SDS011;5195;48.562;9.192;2023-02-28T10:59:21;11.40;;;10.50;;
10299;SDS011;5195;48.562;9.192;2023-02-28T11:01:56;11.25;;;10.43;;
10299;SDS011;5195;48.562;9.192;2023-02-28T11:04:33;10.37;;;9.57;;
10299;SDS011;5195;48.562;9.192;2023-02-28T11:07:20;10.80;;;10.00;;
10299;SDS011;5195;48.562;9.192;2023-02-28T11:09:55;9.57;;;8.77;;
10299;SDS011;5195;48.562;9.192;2023-02-28T11:15:21;10.15;;;9.45;;
10299;SDS011;5195;48.562;9.192;2023-02-28T11:20:37;9.33;;;8.60;;
10299;SDS011;5195;48.562;9.192;2023-02-28T11:23:13;13.65;;;12.57;;
10299;SDS011;5195;48.562;9.192;2023-02-28T11:25:50;10.65;;;9.85;;
10299;SDS011;5195;48.562;9.192;2023-02-28T11:28:29;9.83;;;9.03;;
10299;SDS011;5195;48.562;9.192;2023-02-28T11:33:50;10.60;;;9.90;;
10299;SDS011;5195;48.562;9.192;2023-02-28T11:36:26;11.87;;;10.97;;
10299;SDS011;5195;48.562;9.192;2023-02-28T11:39:03;9.93;;;9.23;;
10299;SDS011;5195;48.562;9.192;2023-02-28T11:47:35;9.53;;;8.83;;
10299;SDS011;5195;48.562;9.192;2023-02-28T11:50:13;8.90;;;8.10;;
10299;SDS011;5195;48.562;9.192;2023-02-28T11:53:13;9.40;;;8.50;;
10299;SDS011;5195;48.562;9.192;2023-02-28T11:55:48;9.40;;;8.60;;
10299;SDS011;5195;48.562;9.192;2023-02-28T11:58:27;10.70;;;9.93;;
10299;SDS011;5195;48.562;9.192;2023-02-28T12:04:17;10.45;;;9.68;;
10299;SDS011;5195;48.562;9.192;2023-02-28T12:12:37;10.50;;;9.70;;
10299;SDS011;5195;48.562;9.192;2023-02-28T12:18:24;9.63;;;8.93;;
10299;SDS011;5195;48.562;9.192;2023-02-28T12:29:19;9.33;;;8.60;;
10299;SDS011;5195;48.562;9.192;2023-02-28T12:34:57;10.63;;;9.82;;
10299;SDS011;5195;48.562;9.192;2023-02-28T12:40:40;10.63;;;9.82;;
10299;SDS011;5195;48.562;9.192;2023-02-28T12:43:09;10.13;;;9.43;;
10299;SDS011;5195;48.562;9.192;2023-02-28T12:45:46;10.30;;;9.43;;
10299;SDS011;5195;48.562;9.192;2023-02-28T12:51:15;10.68;;;9.88;;
10299;SDS011;5195;48.562;9.192;2023-02-28T12:56:43;9.83;;;9.00;;
10299;SDS011;5195;48.562;9.192;2023-02-28T13:08:04;10.00;;;9.10;;
10299;SDS011;5195;48.562;9.192;2023-02-28T13:10:41;9.70;;;8.87;;
10299;SDS011;5195;48.562;9.192;2023-02-28T13:13:16;9.63;;;8.83;;
10299;SDS011;5195;48.562;9.192;2023-02-28T13:16:02;12.57;;;11.47;;
10299;SDS011;5195;48.562;9.192;2023-02-28T13:18:41;43.10;;;34.87;;
10299;SDS011;5195;48.562;9.192;2023-02-28T13:21:26;10.40;;;9.67;;
10299;SDS011;5195;48.562;9.192;2023-02-28T13:23:59;9.40;;;8.60;;
10299;SDS011;5195;48.562;9.192;2023-02-28T13:42:48;11.43;;;10.63;;
10299;SDS011;5195;48.562;9.192;2023-02-28T13:45:28;11.40;;;10.60;;
10299;SDS011;5195;48.562;9.192;2023-02-28T13:48:15;8.93;;;8.23;;
10299;SDS011;5195;48.562;9.192;2023-02-28T13:50:40;9.50;;;8.70;;
10299;SDS011;5195;48.562;9.192;2023-02-28T13:53:24;11.00;;;10.20;;
10299;SDS011;5195;48.562;9.192;2023-02-28T13:56:09;9.93;;;9.13;;
10299;SDS011;5195;48.562;9.192;2023-02-28T14:04:32;11.70;;;10.50;;
10299;SDS011;5195;48.562;9.192;2023-02-28T14:06:51;11.40;;;10.50;;
10299;SDS011;5195;48.562;9.192;2023-02-28T14:18:25;10.03;;;9.17;;
10299;SDS011;5195;48.562;9.192;2023-02-28T14:27:11;8.97;;;8.17;;
10299;SDS011;5195;48.562;9.192;2023-02-28T14:30:01;9.83;;;8.97;;
10299;SDS011;5195;48.562;9.192;2023-02-28T14:41:40;9.80;;;9.20;;
10299;SDS011;5195;48.562;9.192;2023-02-28T14:44:27;10.30;;;9.50;;
10299;SDS011;5195;48.562;9.192;2023-02-28T14:47:11;8.50;;;7.90;;
10299;SDS011;5195;48.562;9.192;2023-02-28T14:49:46;9.30;;;8.60;;
10299;SDS011;5195;48.562;9.192;2023-02-28T14:52:25;9.10;;;8.37;;
10299;SDS011;5195;48.562;9.192;2023-02-28T14:55:03;8.90;;;8.30;;
10299;SDS011;5195;48.562;9.192;2023-02-28T14:57:40;10.15;;;9.45;;
10299;SDS011;5195;48.562;9.192;2023-02-28T15:00:17;9.67;;;8.77;;
10299;SDS011;5195;48.562;9.192;2023-02-28T15:02:52;10.30;;;9.50;;
10299;SDS011;5195;48.562;9.192;2023-02-28T15:05:32;30.02;;;26.85;;
10299;SDS011;5195;48.562;9.192;2023-02-28T15:10:49;10.70;;;9.90;;
10299;SDS011;5195;48.562;9.192;2023-02-28T15:13:18;8.63;;;8.03;;
10299;SDS011;5195;48.562;9.192;2023-02-28T15:15:55;9.47;;;8.60;;
10299;SDS011;5195;48.562;9.192;2023-02-28T15:21:25;9.00;;;8.30;;
10299;SDS011;5195;48.562;9.192;2023-02-28T15:24:10;9.73;;;8.83;;
10299;SDS011;5195;48.562;9.192;2023-02-28T15:26:58;8.37;;;7.67;;
10299;SDS011;5195;48.562;9.192;2023-02-28T15:29:37;9.83;;;9.23;;
10299;SDS011;5195;48.562;9.192;2023-02-28T15:32:16;10.18;;;9.07;;
10299;SDS011;5195;48.562;9.192;2023-02-28T15:34:46;10.30;;;9.40;;
10299;SDS011;5195;48.562;9.192;2023-02-28T15:45:45;10.68;;;9.88;;
10299;SDS011;5195;48.562;9.192;2023-02-28T15:48:30;9.93;;;9.13;;
10299;SDS011;5195;48.562;9.192;2023-02-28T15:51:07;8.23;;;7.57;;
10299;SDS011;5195;48.562;9.192;2023-02-28T15:53:48;8.33;;;7.63;;
10299;SDS011;5195;48.562;9.192;2023-02-28T15:59:05;8.63;;;8.03;;
10299;SDS011;5195;48.562;9.192;2023-02-28T16:01:40;8.93;;;8.23;;
10299;SDS011;5195;48.562;9.192;2023-02-28T16:04:20;8.80;;;8.10;;
10299;SDS011;5195;48.562;9.192;2023-02-28T16:09:34;14.27;;;13.07;;
10299;SDS011;5195;48.562;9.192;2023-02-28T16:12:10;9.77;;;9.07;;
10299;SDS011;5195;48.562;9.192;2023-02-28T16:14:46;10.03;;;9.23;;
10299;SDS011;5195;48.562;9.192;2023-02-28T16:17:22;8.70;;;7.97;;
10299;SDS011;5195;48.562;9.192;2023-02-28T16:19:57;11.02;;;10.18;;
10299;SDS011;5195;48.562;9.192;2023-02-28T16:22:33;10.43;;;9.63;;
10299;SDS011;5195;48.562;9.192;2023-02-28T16:25:13;10.23;;;9.13;;
10299;SDS011;5195;48.562;9.192;2023-02-28T16:27:48;9.03;;;8.17;;
10299;SDS011;5195;48.562;9.192;2023-02-28T16:30:24;10.02;;;9.23;;
10299;SDS011;5195;48.562;9.192;2023-02-28T16:32:59;10.55;;;9.73;;
10299;SDS011;5195;48.562;9.192;2023-02-28T16:35:35;11.32;;;10.32;;
10299;SDS011;5195;48.562;9.192;2023-02-28T16:38:10;10.55;;;9.75;;
10299;SDS011;5195;48.562;9.192;2023-02-28T16:40:46;10.60;;;9.70;;
10299;SDS011;5195;48.562;9.192;2023-02-28T16:43:23;11.80;;;10.60;;
10299;SDS011;5195;48.562;9.192;2023-02-28T16:45:58;10.00;;;9.10;;
10299;SDS011;5195;48.562;9.192;2023-02-28T16:48:34;9.70;;;8.80;;
10299;SDS011;5195;48.562;9.192;2023-02-28T16:51:14;9.50;;;8.80;;
10299;SDS011;5195;48.562;9.192;2023-02-28T16:53:48;11.80;;;10.90;;
10299;SDS011;5195;48.562;9.192;2023-02-28T16:56:24;11.23;;;10.13;;
10299;SDS011;5195;48.562;9.192;2023-02-28T16:59:01;11.48;;;10.55;;
10299;SDS011;5195;48.562;9.192;2023-02-28T17:01:36;9.70;;;8.90;;
10299;SDS011;5195;48.562;9.192;2023-02-28T17:04:11;14.10;;;8.67;;
10299;SDS011;5195;48.562;9.192;2023-02-28T17:06:48;10.98;;;10.13;;
10299;SDS011;5195;48.562;9.192;2023-02-28T17:09:25;9.73;;;9.00;;
10299;SDS011;5195;48.562;9.192;2023-02-28T17:12:01;11.25;;;10.35;;
10299;SDS011;5195;48.562;9.192;2023-02-28T17:14:36;11.20;;;10.40;;
10299;SDS011;5195;48.562;9.192;2023-02-28T17:17:20;11.17;;;10.17;;
10299;SDS011;5195;48.562;9.192;2023-02-28T17:19:55;11.10;;;10.30;;
10299;SDS011;5195;48.562;9.192;2023-02-28T17:22:30;11.63;;;10.77;;
10299;SDS011;5195;48.562;9.192;2023-02-28T17:25:06;9.70;;;8.87;;
10299;SDS011;5195;48.562;9.192;2023-02-28T17:27:42;9.57;;;8.77;;
10299;SDS011;5195;48.562;9.192;2023-02-28T17:30:19;10.80;;;9.90;;
10299;SDS011;5195;48.562;9.192;2023-02-28T17:32:54;16.83;;;10.33;;
10299;SDS011;5195;48.562;9.192;2023-02-28T17:35:29;10.07;;;9.17;;
10299;SDS011;5195;48.562;9.192;2023-02-28T17:38:05;14.23;;;12.82;;
10299;SDS011;5195;48.562;9.192;2023-02-28T17:40:40;15.77;;;14.10;;
10299;SDS011;5195;48.562;9.192;2023-02-28T17:43:16;34.40;;;25.70;;
10299;SDS011;5195;48.562;9.192;2023-02-28T17:45:53;13.80;;;12.50;;
10299;SDS011;5195;48.562;9.192;2023-02-28T17:48:28;12.20;;;11.17;;
10299;SDS011;5195;48.562;9.192;2023-02-28T17:51:04;10.13;;;9.27;;
10299;SDS011;5195;48.562;9.192;2023-02-28T17:53:41;12.70;;;11.70;;
10299;SDS011;5195;48.562;9.192;2023-02-28T17:56:20;13.03;;;11.83;;
10299;SDS011;5195;48.562;9.192;2023-02-28T17:58:55;11.70;;;10.60;;
10299;SDS011;5195;48.562;9.192;2023-02-28T18:01:30;11.47;;;10.40;;
10299;SDS011;5195;48.562;9.192;2023-02-28T18:04:07;11.80;;;10.60;;
10299;SDS011;5195;48.562;9.192;2023-02-28T18:06:43;15.27;;;12.47;;
10299;SDS011;5195;48.562;9.192;2023-02-28T18:09:28;15.30;;;13.67;;
10299;SDS011;5195;48.562;9.192;2023-02-28T18:12:05;19.73;;;16.50;;
10299;SDS011;5195;48.562;9.192;2023-02-28T18:14:42;16.20;;;14.80;;
10299;SDS011;5195;48.562;9.192;2023-02-28T18:17:17;14.10;;;12.90;;
10299;SDS011;5195;48.562;9.192;2023-02-28T18:19:53;13.82;;;12.52;;
10299;SDS011;5195;48.562;9.192;2023-02-28T18:22:29;13.20;;;12.20;;
10299;SDS011;5195;48.562;9.192;2023-02-28T18:25:04;11.50;;;10.60;;
10299;SDS011;5195;48.562;9.192;2023-02-28T18:27:40;11.90;;;10.80;;
10299;SDS011;5195;48.562;9.192;2023-02-28T18:30:16;11.80;;;10.70;;
10299;SDS011;5195;48.562;9.192;2023-02-28T18:32:51;13.33;;;11.93;;
10299;SDS011;5195;48.562;9.192;2023-02-28T18:35:27;14.25;;;13.13;;
10299;SDS011;5195;48.562;9.192;2023-02-28T18:38:16;12.60;;;11.40;;
10299;SDS011;5195;48.562;9.192;2023-02-28T18:40:52;14.33;;;13.13;;
10299;SDS011;5195;48.562;9.192;2023-02-28T18:43:28;13.73;;;12.33;;
10299;SDS011;5195;48.562;9.192;2023-02-28T18:46:06;14.20;;;13.00;;